createdAt,value
2019-02-12T00:02:15.515Z,97989.00
2019-02-12T00:04:46.737Z,97984.00
2019-02-12T00:07:18.133Z,97987.00
2019-02-12T00:09:49.580Z,97988.00
2019-02-12T00:12:20.675Z,97989.00
2019-02-12T00:14:51.819Z,97991.00
2019-02-12T00:17:22.999Z,97989.00
2019-02-12T00:19:54.561Z,97989.00
2019-02-12T00:22:25.919Z,97998.00
2019-02-12T00:24:57.108Z,98010.00
2019-02-12T00:27:28.198Z,98005.00
2019-02-12T00:29:59.508Z,97990.00
2019-02-12T00:32:30.766Z,97997.00
2019-02-12T00:35:02.237Z,98000.00
2019-02-12T00:37:33.256Z,98007.00
2019-02-12T00:40:05.234Z,98022.00
2019-02-12T00:42:36.618Z,98007.00
2019-02-12T00:45:08.755Z,98042.00
2019-02-12T00:47:40.907Z,98025.00
2019-02-12T00:50:12.241Z,98039.00
2019-02-12T00:52:43.770Z,98032.00
2019-02-12T00:55:14.970Z,98023.00
2019-02-12T00:57:46.325Z,98010.00
2019-02-12T01:00:17.430Z,98018.00
2019-02-12T01:02:48.515Z,98017.00
2019-02-12T01:05:19.714Z,98017.00
2019-02-12T01:07:50.745Z,98023.00
2019-02-12T01:10:22.034Z,98034.00
2019-02-12T01:12:53.230Z,98038.00
2019-02-12T01:15:24.869Z,98033.00
2019-02-12T01:17:56.198Z,98041.00
2019-02-12T01:20:27.724Z,98024.00
2019-02-12T01:22:58.826Z,98016.00
2019-02-12T01:25:30.037Z,98030.00
2019-02-12T01:28:01.138Z,98041.00
2019-02-12T01:30:32.354Z,98032.00
2019-02-12T01:33:03.682Z,98023.00
2019-02-12T01:35:35.022Z,98023.00
2019-02-12T01:38:06.247Z,98026.00
2019-02-12T01:40:37.447Z,98043.00
2019-02-12T01:43:08.750Z,98042.00
2019-02-12T01:45:39.873Z,98040.00
2019-02-12T01:48:10.961Z,98051.00
2019-02-12T01:50:42.021Z,98051.00
2019-02-12T01:53:13.122Z,98050.00
2019-02-12T01:55:44.270Z,98060.00
2019-02-12T01:58:15.435Z,98066.00
2019-02-12T02:00:46.557Z,98057.00
2019-02-12T02:03:17.725Z,98068.00
2019-02-12T02:05:49.120Z,98083.00
2019-02-12T02:08:20.291Z,98061.00
2019-02-12T02:10:51.743Z,98057.00
2019-02-12T02:13:22.794Z,98068.00
2019-02-12T02:15:53.868Z,98068.00
2019-02-12T02:18:25.066Z,98074.00
2019-02-12T02:20:56.685Z,98066.00
2019-02-12T02:23:27.773Z,98057.00
2019-02-12T02:25:58.904Z,98062.00
2019-02-12T02:28:30.055Z,98061.00
2019-02-12T02:31:01.561Z,98066.00
2019-02-12T02:33:33.004Z,98080.00
2019-02-12T02:36:04.566Z,98073.00
2019-02-12T02:38:35.756Z,98076.00
2019-02-12T02:41:06.925Z,98079.00
2019-02-12T02:43:38.053Z,98084.00
2019-02-12T02:46:10.027Z,98083.00
2019-02-12T02:48:41.474Z,98091.00
2019-02-12T02:51:12.655Z,98099.00
2019-02-12T02:53:43.759Z,98101.00
2019-02-12T02:56:14.790Z,98091.00
2019-02-12T02:58:46.382Z,98094.00
2019-02-12T03:01:17.942Z,98090.00
2019-02-12T03:03:49.183Z,98093.00
2019-02-12T03:06:20.438Z,98105.00
2019-02-12T03:08:51.884Z,98104.00
2019-02-12T03:11:23.000Z,98113.00
2019-02-12T03:13:54.474Z,98121.00
2019-02-12T03:16:25.527Z,98120.00
2019-02-12T03:18:56.659Z,98138.00
2019-02-12T03:21:27.681Z,98132.00
2019-02-12T03:23:59.032Z,98135.00
2019-02-12T03:26:30.123Z,98138.00
2019-02-12T03:29:01.711Z,98141.00
2019-02-12T03:31:32.821Z,98133.00
2019-02-12T03:34:04.559Z,98139.00
2019-02-12T03:36:35.630Z,98137.00
2019-02-12T03:39:07.162Z,98132.00
2019-02-12T03:41:38.326Z,98131.00
2019-02-12T03:44:09.446Z,98124.00
2019-02-12T03:46:40.630Z,98153.00
2019-02-12T03:49:11.919Z,98152.00
2019-02-12T03:51:43.022Z,98155.00
2019-02-12T03:54:14.395Z,98165.00
2019-02-12T03:56:45.738Z,98162.00
2019-02-12T03:59:17.081Z,98155.00
2019-02-12T04:01:48.253Z,98153.00
2019-02-12T04:04:19.623Z,98147.00
2019-02-12T04:06:50.950Z,98154.00
2019-02-12T04:09:22.190Z,98145.00
2019-02-12T04:11:53.658Z,98152.00
2019-02-12T04:14:25.106Z,98154.00
2019-02-12T04:16:56.299Z,98139.00
2019-02-12T04:19:27.786Z,98155.00
2019-02-12T04:21:59.348Z,98154.00
2019-02-12T04:24:30.696Z,98155.00
2019-02-12T04:27:01.719Z,98153.00
2019-02-12T04:29:32.930Z,98162.00
2019-02-12T04:32:04.681Z,98163.00
2019-02-12T04:34:36.443Z,98143.00
2019-02-12T04:37:07.456Z,98150.00
2019-02-12T04:39:38.592Z,98150.00
2019-02-12T04:42:09.961Z,98156.00
2019-02-12T04:44:41.036Z,98137.00
2019-02-12T04:47:12.257Z,98149.00
2019-02-12T04:49:43.604Z,98152.00
2019-02-12T04:52:15.207Z,98156.00
2019-02-12T04:54:46.318Z,98146.00
2019-02-12T04:57:17.534Z,98167.00
2019-02-12T04:59:48.719Z,98155.00
2019-02-12T05:02:20.274Z,98170.00
2019-02-12T05:04:51.476Z,98172.00
2019-02-12T05:07:23.043Z,98170.00
2019-02-12T05:09:55.696Z,98160.00
2019-02-12T05:12:27.265Z,98164.00
2019-02-12T05:14:58.468Z,98163.00
2019-02-12T05:17:30.038Z,98171.00
2019-02-12T05:20:01.281Z,98161.00
2019-02-12T05:22:43.172Z,98169.00
2019-02-12T05:25:06.935Z,98176.00
2019-02-12T05:27:38.263Z,98180.00
2019-02-12T05:30:10.856Z,98172.00
2019-02-12T05:32:41.975Z,98164.00
2019-02-12T05:35:13.199Z,98156.00
2019-02-12T05:37:44.490Z,98158.00
2019-02-12T05:40:16.027Z,98149.00
2019-02-12T05:42:47.165Z,98155.00
2019-02-12T05:45:18.647Z,98165.00
2019-02-12T05:47:50.050Z,98170.00
2019-02-12T05:50:21.291Z,98165.00
2019-02-12T05:52:54.701Z,98171.00
2019-02-12T05:55:25.473Z,98179.00
2019-02-12T05:57:56.563Z,98169.00
2019-02-12T06:00:30.148Z,98169.00
2019-02-12T06:03:01.294Z,98183.00
2019-02-12T06:05:32.575Z,98164.00
2019-02-12T06:08:03.832Z,98170.00
2019-02-12T06:10:34.922Z,98186.00
2019-02-12T06:13:06.266Z,98181.00
2019-02-12T06:15:37.274Z,98202.00
2019-02-12T06:18:08.797Z,98188.00
2019-02-12T06:20:39.895Z,98204.00
2019-02-12T06:23:11.009Z,98192.00
2019-02-12T06:25:42.530Z,98199.00
2019-02-12T06:28:13.986Z,98199.00
2019-02-12T06:30:45.151Z,98186.00
2019-02-12T06:33:16.558Z,98197.00
2019-02-12T06:35:48.038Z,98202.00
2019-02-12T06:38:19.160Z,98198.00
2019-02-12T06:40:50.347Z,98194.00
2019-02-12T06:43:21.907Z,98219.00
2019-02-12T06:45:53.062Z,98227.00
2019-02-12T06:48:24.178Z,98218.00
2019-02-12T06:50:56.252Z,98225.00
2019-02-12T06:53:27.484Z,98224.00
2019-02-12T06:55:58.673Z,98231.00
2019-02-12T06:58:29.817Z,98233.00
2019-02-12T07:01:01.301Z,98239.00
2019-02-12T07:03:48.667Z,98246.00
2019-02-12T07:07:13.756Z,98234.00
2019-02-12T07:10:14.202Z,98244.00
2019-02-12T07:13:22.958Z,98254.00
2019-02-12T07:16:24.632Z,98248.00
2019-02-12T07:19:43.286Z,98249.00
2019-02-12T07:23:22.709Z,98252.00
2019-02-12T07:26:43.252Z,98256.00
2019-02-12T07:30:19.691Z,98253.00
2019-02-12T07:33:56.802Z,98279.00
2019-02-12T07:37:28.602Z,98270.00
2019-02-12T07:40:41.798Z,98265.00
2019-02-12T07:44:00.790Z,98274.00
2019-02-12T07:47:49.724Z,98285.00
2019-02-12T07:51:20.389Z,98300.00
2019-02-12T07:54:43.934Z,98296.00
2019-02-12T07:58:09.411Z,98313.00
2019-02-12T08:01:12.683Z,98317.00
2019-02-12T08:04:33.277Z,98329.00
2019-02-12T08:07:39.071Z,98338.00
2019-02-12T08:11:06.673Z,98335.00
2019-02-12T08:14:44.840Z,98339.00
2019-02-12T08:18:18.185Z,98346.00
2019-02-12T08:21:34.934Z,98336.00
2019-02-12T08:25:03.098Z,98352.00
2019-02-12T08:28:29.884Z,98362.00
2019-02-12T08:31:22.999Z,98335.00
2019-02-12T08:34:23.029Z,98335.00
2019-02-12T08:38:04.096Z,98341.00
2019-02-12T08:41:36.818Z,98342.00
2019-02-12T08:44:51.211Z,98352.00
2019-02-12T08:48:32.754Z,98351.00
2019-02-12T08:51:51.389Z,98361.00
2019-02-12T08:55:04.579Z,98356.00
2019-02-12T08:58:20.538Z,98371.00
2019-02-12T09:01:47.845Z,98374.00
2019-02-12T09:04:50.486Z,98379.00
2019-02-12T09:08:03.682Z,98374.00
2019-02-12T09:11:28.190Z,98386.00
2019-02-12T09:14:21.551Z,98383.00
2019-02-12T09:17:59.173Z,98378.00
2019-02-12T09:21:22.469Z,98377.00
2019-02-12T09:24:28.653Z,98388.00
2019-02-12T09:27:25.502Z,98387.00
2019-02-12T09:30:40.866Z,98381.00
2019-02-12T09:33:38.111Z,98387.00
2019-02-12T09:37:12.569Z,98389.00
2019-02-12T09:40:30.530Z,98389.00
2019-02-12T09:43:49.399Z,98394.00
2019-02-12T09:46:52.764Z,98387.00
2019-02-12T09:49:54.219Z,98402.00
2019-02-12T09:53:09.217Z,98413.00
2019-02-12T09:56:36.457Z,98439.00
2019-02-12T09:59:47.429Z,98426.00
2019-02-12T10:03:32.250Z,98431.00
2019-02-12T10:07:02.730Z,98419.00
2019-02-12T10:09:59.926Z,98432.00
2019-02-12T10:13:27.174Z,98431.00
2019-02-12T10:16:51.975Z,98437.00
2019-02-12T10:20:11.270Z,98449.00
2019-02-12T10:23:06.615Z,98452.00
2019-02-12T10:25:55.103Z,98452.00
2019-02-12T10:29:13.174Z,98449.00
2019-02-12T10:31:45.795Z,98455.00
2019-02-12T10:34:16.984Z,98451.00
2019-02-12T10:36:48.440Z,98456.00
2019-02-12T10:39:19.687Z,98463.00
2019-02-12T10:41:50.777Z,98446.00
2019-02-12T10:44:21.890Z,98444.00
2019-02-12T10:46:53.466Z,98447.00
2019-02-12T10:49:24.681Z,98460.00
2019-02-12T10:51:56.125Z,98456.00
2019-02-12T10:54:28.159Z,98470.00
2019-02-12T10:56:59.593Z,98462.00
2019-02-12T10:59:30.777Z,98472.00
2019-02-12T11:02:01.950Z,98464.00
2019-02-12T11:04:33.301Z,98473.00
2019-02-12T11:07:04.458Z,98458.00
2019-02-12T11:09:35.880Z,98459.00
2019-02-12T11:12:07.448Z,98459.00
2019-02-12T11:14:39.346Z,98452.00
2019-02-12T11:17:10.621Z,98445.00
2019-02-12T11:19:42.211Z,98446.00
2019-02-12T11:22:13.767Z,98442.00
2019-02-12T11:24:45.320Z,98449.00
2019-02-12T11:27:16.519Z,98452.00
2019-02-12T11:29:48.353Z,98461.00
2019-02-12T11:32:19.459Z,98448.00
2019-02-12T11:34:50.629Z,98448.00
2019-02-12T11:37:21.784Z,98452.00
2019-02-12T11:39:53.026Z,98444.00
2019-02-12T11:42:24.629Z,98463.00
2019-02-12T11:44:56.136Z,98459.00
2019-02-12T11:47:27.155Z,98455.00
2019-02-12T11:49:58.721Z,98467.00
2019-02-12T11:52:29.891Z,98464.00
2019-02-12T11:55:01.098Z,98467.00
2019-02-12T11:57:32.311Z,98471.00
2019-02-12T12:00:04.115Z,98475.00
2019-02-12T12:02:41.849Z,98483.00
2019-02-12T12:05:09.715Z,98486.00
2019-02-12T12:07:40.919Z,98481.00
2019-02-12T12:10:12.474Z,98477.00
2019-02-12T12:12:43.654Z,98493.00
2019-02-12T12:15:14.974Z,98490.00
2019-02-12T12:17:46.247Z,98487.00
2019-02-12T12:20:17.541Z,98482.00
2019-02-12T12:22:48.718Z,98494.00
2019-02-12T12:25:19.848Z,98494.00
2019-02-12T12:27:51.081Z,98491.00
2019-02-12T12:30:22.192Z,98499.00
2019-02-12T12:32:53.213Z,98491.00
2019-02-12T12:35:24.413Z,98508.00
2019-02-12T12:37:55.609Z,98511.00
2019-02-12T12:40:27.875Z,98493.00
2019-02-12T12:42:59.207Z,98492.00
2019-02-12T12:45:30.717Z,98499.00
2019-02-12T12:48:01.837Z,98496.00
2019-02-12T12:50:32.882Z,98405.00
2019-02-12T12:53:04.183Z,98490.00
2019-02-12T12:55:35.519Z,98491.00
2019-02-12T12:58:06.787Z,98492.00
2019-02-12T13:00:38.414Z,98505.00
2019-02-12T13:03:09.711Z,98502.00
2019-02-12T13:05:41.306Z,98513.00
2019-02-12T13:08:12.600Z,98519.00
2019-02-12T13:10:44.666Z,98509.00
2019-02-12T13:13:16.976Z,98518.00
2019-02-12T13:15:48.299Z,98524.00
2019-02-12T13:18:19.406Z,98509.00
2019-02-12T13:20:50.454Z,98517.00
2019-02-12T13:23:21.627Z,98525.00
2019-02-12T13:25:52.905Z,98518.00
2019-02-12T13:28:24.012Z,98503.00
2019-02-12T13:30:55.245Z,98512.00
2019-02-12T13:33:26.731Z,98505.00
2019-02-12T13:35:58.194Z,98513.00
2019-02-12T13:38:29.294Z,98522.00
2019-02-12T13:41:00.396Z,98504.00
2019-02-12T13:43:31.827Z,98513.00
2019-02-12T13:46:03.032Z,98525.00
2019-02-12T13:48:34.188Z,98517.00
2019-02-12T13:51:05.682Z,98519.00
2019-02-12T13:53:36.947Z,98527.00
2019-02-12T13:56:08.248Z,98529.00
2019-02-12T13:58:39.402Z,98538.00
2019-02-12T14:01:10.661Z,98525.00
2019-02-12T14:03:41.829Z,98536.00
2019-02-12T14:06:13.131Z,98529.00
2019-02-12T14:08:44.401Z,98529.00
2019-02-12T14:11:15.635Z,98515.00
2019-02-12T14:13:48.508Z,98542.00
2019-02-12T14:16:19.799Z,98553.00
2019-02-12T14:18:50.810Z,98547.00
2019-02-12T14:21:25.454Z,98552.00
2019-02-12T14:23:56.628Z,98558.00
2019-02-12T14:26:27.823Z,98555.00
2019-02-12T14:28:59.366Z,98572.00
2019-02-12T14:31:32.040Z,98567.00
2019-02-12T14:34:03.132Z,98566.00
2019-02-12T14:36:34.686Z,98567.00
2019-02-12T14:39:06.598Z,98573.00
2019-02-12T14:41:38.075Z,98568.00
2019-02-12T14:44:09.314Z,98572.00
2019-02-12T14:46:40.564Z,98578.00
2019-02-12T14:49:11.727Z,98575.00
2019-02-12T14:51:42.932Z,98577.00
2019-02-12T14:54:14.109Z,98585.00
2019-02-12T14:56:45.331Z,98592.00
2019-02-12T14:59:16.423Z,98594.00
2019-02-12T15:01:47.675Z,98604.00
2019-02-12T15:04:18.847Z,98610.00
2019-02-12T15:06:50.621Z,98597.00
2019-02-12T15:09:21.987Z,98607.00
2019-02-12T15:11:53.190Z,98606.00
2019-02-12T15:14:24.426Z,98599.00
2019-02-12T15:16:56.638Z,98596.00
2019-02-12T15:19:27.807Z,98605.00
2019-02-12T15:21:59.400Z,98604.00
2019-02-12T15:24:30.966Z,98603.00
2019-02-12T15:27:02.302Z,98606.00
2019-02-12T15:29:34.643Z,98616.00
2019-02-12T15:32:06.207Z,98619.00
2019-02-12T15:34:37.473Z,98628.00
2019-02-12T15:37:09.061Z,98624.00
2019-02-12T15:39:40.243Z,98623.00
2019-02-12T15:42:11.475Z,98625.00
2019-02-12T15:44:42.858Z,98627.00
2019-02-12T15:47:13.977Z,98629.00
2019-02-12T15:49:45.186Z,98633.00
2019-02-12T15:52:16.400Z,98633.00
2019-02-12T15:54:47.799Z,98631.00
2019-02-12T15:57:18.959Z,98640.00
2019-02-12T15:59:50.038Z,98653.00
2019-02-12T16:02:21.171Z,98646.00
2019-02-12T16:04:52.257Z,98640.00
2019-02-12T16:07:24.415Z,98640.00
2019-02-12T16:09:57.025Z,98653.00
2019-02-12T16:12:28.537Z,98655.00
2019-02-12T16:15:01.590Z,98660.00
2019-02-12T16:17:35.382Z,98664.00
2019-02-12T16:20:07.466Z,98670.00
2019-02-12T16:22:38.722Z,98656.00
2019-02-12T16:25:10.996Z,98657.00
2019-02-12T16:27:42.225Z,98660.00
2019-02-12T16:30:16.179Z,98662.00
2019-02-12T16:32:47.466Z,98663.00
2019-02-12T16:35:19.177Z,98668.00
2019-02-12T16:37:50.334Z,98677.00
2019-02-12T16:40:23.302Z,98680.00
2019-02-12T16:42:55.442Z,98678.00
2019-02-12T16:45:33.023Z,98682.00
2019-02-12T16:48:04.175Z,98686.00
2019-02-12T16:50:35.741Z,98696.00
2019-02-12T16:53:07.068Z,98693.00
2019-02-12T16:55:38.618Z,98695.00
2019-02-12T16:58:10.185Z,98703.00
2019-02-12T17:00:41.671Z,98708.00
2019-02-12T17:03:12.830Z,98704.00
2019-02-12T17:05:44.524Z,98718.00
2019-02-12T17:08:16.344Z,98712.00
2019-02-12T17:10:47.491Z,98741.00
2019-02-12T17:13:18.646Z,98718.00
2019-02-12T17:15:49.817Z,98723.00
2019-02-12T17:18:21.175Z,98725.00
2019-02-12T17:20:52.356Z,98736.00
2019-02-12T17:23:23.652Z,98737.00
2019-02-12T17:25:54.755Z,98739.00
2019-02-12T17:28:25.898Z,98740.00
2019-02-12T17:30:56.998Z,98742.00
2019-02-12T17:33:28.464Z,98755.00
2019-02-12T17:35:59.574Z,98747.00
2019-02-12T17:38:30.649Z,98759.00
2019-02-12T17:41:01.783Z,98761.00
2019-02-12T17:43:33.070Z,98762.00
2019-02-12T17:46:04.349Z,98761.00
2019-02-12T17:48:35.703Z,98774.00
2019-02-12T17:51:07.659Z,98766.00
2019-02-12T17:53:38.817Z,98767.00
2019-02-12T17:56:10.153Z,98780.00
2019-02-12T17:58:41.216Z,98775.00
2019-02-12T18:01:12.308Z,98763.00
2019-02-12T18:03:43.554Z,98772.00
2019-02-12T18:06:15.450Z,98783.00
2019-02-12T18:08:47.003Z,98778.00
2019-02-12T18:11:18.089Z,98782.00
2019-02-12T18:13:49.240Z,98784.00
2019-02-12T18:16:20.850Z,98800.00
2019-02-12T18:18:52.015Z,98800.00
2019-02-12T18:21:24.107Z,98793.00
2019-02-12T18:23:55.348Z,98814.00
2019-02-12T18:26:33.094Z,98799.00
2019-02-12T18:28:59.566Z,98807.00
2019-02-12T18:31:31.758Z,98804.00
2019-02-12T18:34:02.890Z,98807.00
2019-02-12T18:36:34.012Z,98806.00
2019-02-12T18:39:06.418Z,98810.00
2019-02-12T18:41:39.315Z,98804.00
2019-02-12T18:44:10.539Z,98822.00
2019-02-12T18:46:41.927Z,98819.00
2019-02-12T18:49:13.075Z,98812.00
2019-02-12T18:51:44.490Z,98819.00
2019-02-12T18:54:15.617Z,98823.00
2019-02-12T18:56:46.780Z,98825.00
2019-02-12T18:59:19.075Z,98825.00
2019-02-12T19:01:50.626Z,98829.00
2019-02-12T19:04:22.157Z,98827.00
2019-02-12T19:06:53.731Z,98820.00
2019-02-12T19:09:24.979Z,98816.00
2019-02-12T19:11:56.154Z,98816.00
2019-02-12T19:14:27.371Z,98825.00
2019-02-12T19:16:58.571Z,98835.00
2019-02-12T19:19:30.217Z,98836.00
2019-02-12T19:22:01.357Z,98830.00
2019-02-12T19:24:33.527Z,98835.00
2019-02-12T19:27:04.969Z,98848.00
2019-02-12T19:29:36.192Z,98839.00
2019-02-12T19:32:07.749Z,98840.00
2019-02-12T19:34:39.356Z,98834.00
2019-02-12T19:37:11.407Z,98854.00
2019-02-12T19:39:42.551Z,98841.00
2019-02-12T19:42:13.722Z,98841.00
2019-02-12T19:44:44.780Z,98851.00
2019-02-12T19:47:15.800Z,98848.00
2019-02-12T19:49:47.267Z,98841.00
2019-02-12T19:52:18.340Z,98839.00
2019-02-12T19:54:49.823Z,98852.00
2019-02-12T19:57:21.244Z,98849.00
2019-02-12T19:59:52.301Z,98854.00
2019-02-12T20:02:23.458Z,98838.00
2019-02-12T20:04:56.232Z,98854.00
2019-02-12T20:07:27.664Z,98837.00
2019-02-12T20:09:58.907Z,98844.00
2019-02-12T20:12:30.306Z,98840.00
2019-02-12T20:15:02.982Z,98836.00
2019-02-12T20:17:35.282Z,98837.00
2019-02-12T20:20:08.559Z,98834.00
2019-02-12T20:22:39.747Z,98836.00
2019-02-12T20:25:11.172Z,98852.00
2019-02-12T20:27:43.003Z,98835.00
2019-02-12T20:30:14.985Z,98847.00
2019-02-12T20:32:46.200Z,98840.00
2019-02-12T20:35:17.859Z,98837.00
2019-02-12T20:37:49.111Z,98835.00
2019-02-12T20:40:20.654Z,98837.00
2019-02-12T20:42:51.842Z,98845.00
2019-02-12T20:45:23.165Z,98841.00
2019-02-12T20:47:54.274Z,98831.00
2019-02-12T20:50:25.627Z,98839.00
2019-02-12T20:52:56.819Z,98837.00
2019-02-12T20:55:28.335Z,98839.00
2019-02-12T20:57:59.539Z,98830.00
2019-02-12T21:00:30.842Z,98829.00
2019-02-12T21:03:01.996Z,98847.00
2019-02-12T21:05:33.292Z,98841.00
2019-02-12T21:08:04.874Z,98832.00
2019-02-12T21:10:36.037Z,98835.00
2019-02-12T21:13:07.418Z,98843.00
2019-02-12T21:15:38.540Z,98837.00
2019-02-12T21:18:10.156Z,98851.00
2019-02-12T21:20:41.366Z,98855.00
2019-02-12T21:23:12.550Z,98846.00
2019-02-12T21:25:45.026Z,98838.00
2019-02-12T21:28:16.063Z,98844.00
2019-02-12T21:30:47.684Z,98849.00
2019-02-12T21:33:18.837Z,98840.00
2019-02-12T21:35:49.985Z,98839.00
2019-02-12T21:38:21.862Z,98855.00
2019-02-12T21:40:53.422Z,98850.00
2019-02-12T21:43:24.598Z,98849.00
2019-02-12T21:45:55.727Z,98861.00
2019-02-12T21:48:26.886Z,98867.00
2019-02-12T21:50:58.470Z,98854.00
2019-02-12T21:53:29.568Z,98864.00
2019-02-12T21:56:00.801Z,98869.00
2019-02-12T21:58:33.243Z,98857.00
2019-02-12T22:01:04.814Z,98871.00
2019-02-12T22:03:36.266Z,98860.00
2019-02-12T22:06:07.601Z,98857.00
2019-02-12T22:08:38.835Z,98857.00
2019-02-12T22:11:11.033Z,98860.00
2019-02-12T22:13:42.491Z,98854.00
2019-02-12T22:16:13.694Z,98875.00
2019-02-12T22:18:44.935Z,98863.00
2019-02-12T22:21:16.124Z,98857.00
2019-02-12T22:23:47.303Z,98853.00
2019-02-12T22:26:18.625Z,98862.00
2019-02-12T22:28:50.145Z,98862.00
2019-02-12T22:31:21.269Z,98864.00
2019-02-12T22:33:52.738Z,98879.00
2019-02-12T22:36:24.191Z,98884.00
2019-02-12T22:38:55.289Z,98871.00
2019-02-12T22:41:26.538Z,98872.00
2019-02-12T22:43:57.817Z,98883.00
2019-02-12T22:46:29.063Z,98878.00
2019-02-12T22:49:00.580Z,98873.00
2019-02-12T22:51:32.070Z,98885.00
2019-02-12T22:54:03.291Z,98878.00
2019-02-12T22:56:34.883Z,98877.00
2019-02-12T22:59:06.164Z,98877.00
2019-02-12T23:01:39.002Z,98884.00
2019-02-12T23:04:10.206Z,98873.00
2019-02-12T23:06:41.785Z,98878.00
2019-02-12T23:09:16.564Z,98877.00
2019-02-12T23:11:48.310Z,98884.00
2019-02-12T23:14:19.843Z,98879.00
2019-02-12T23:16:51.575Z,98881.00
2019-02-12T23:19:22.811Z,98871.00
2019-02-12T23:21:54.009Z,98888.00
2019-02-12T23:24:25.181Z,98886.00
2019-02-12T23:26:56.231Z,98874.00
2019-02-12T23:29:27.674Z,98879.00
2019-02-12T23:31:58.949Z,98879.00
2019-02-12T23:34:30.547Z,98876.00
2019-02-12T23:37:01.591Z,98885.00
2019-02-12T23:39:33.860Z,98887.00
2019-02-12T23:42:04.419Z,98893.00
2019-02-12T23:44:35.443Z,98895.00
2019-02-12T23:47:06.942Z,98894.00
2019-02-12T23:49:37.959Z,98896.00
2019-02-12T23:52:10.146Z,98895.00
2019-02-12T23:54:41.244Z,98901.00
2019-02-12T23:57:12.548Z,98904.00
2019-02-12T23:59:43.725Z,98899.00
